sensor_id;sensor_type;location;lat;lon;timestamp;pressure;altitude;pressure_sealevel;temperature;humidity
36222;BME280;22266;52.340;4.962;2023-02-19T00:01:14;101696.75;;;10.26;83.95
36222;BME280;22266;52.340;4.962;2023-02-19T00:03:42;101700.44;;;10.25;84.12
36222;BME280;22266;52.340;4.962;2023-02-19T00:06:10;101706.13;;;10.22;84.15
36222;BME280;22266;52.340;4.962;2023-02-19T00:08:37;101700.56;;;10.24;84.53
36222;BME280;22266;52.340;4.962;2023-02-19T00:11:10;101700.91;;;10.21;84.66
36222;BME280;22266;52.340;4.962;2023-02-19T00:13:38;101690.50;;;10.18;85.11
36222;BME280;22266;52.340;4.962;2023-02-19T00:16:07;101702.28;;;10.25;84.83
36222;BME280;22266;52.340;4.962;2023-02-19T00:18:34;101703.97;;;10.26;84.51
36222;BME280;22266;52.340;4.962;2023-02-19T00:21:01;101709.00;;;10.29;84.65
36222;BME280;22266;52.340;4.962;2023-02-19T00:23:29;101720.44;;;10.31;85.00
36222;BME280;22266;52.340;4.962;2023-02-19T00:25:55;101712.38;;;10.31;84.62
36222;BME280;22266;52.340;4.962;2023-02-19T00:28:28;101713.38;;;10.30;84.88
36222;BME280;22266;52.340;4.962;2023-02-19T00:30:54;101724.31;;;10.28;84.75
36222;BME280;22266;52.340;4.962;2023-02-19T00:33:21;101721.63;;;10.28;84.26
36222;BME280;22266;52.340;4.962;2023-02-19T00:35:48;101722.81;;;10.26;84.85
36222;BME280;22266;52.340;4.962;2023-02-19T00:38:15;101719.59;;;10.22;84.68
36222;BME280;22266;52.340;4.962;2023-02-19T00:40:41;101720.25;;;10.24;84.78
36222;BME280;22266;52.340;4.962;2023-02-19T00:43:07;101730.50;;;10.21;85.09
36222;BME280;22266;52.340;4.962;2023-02-19T00:45:34;101728.31;;;10.24;85.03
36222;BME280;22266;52.340;4.962;2023-02-19T00:48:00;101721.97;;;10.25;84.92
36222;BME280;22266;52.340;4.962;2023-02-19T00:50:27;101725.63;;;10.24;84.72
36222;BME280;22266;52.340;4.962;2023-02-19T00:52:53;101724.78;;;10.24;84.68
36222;BME280;22266;52.340;4.962;2023-02-19T00:55:20;101729.66;;;10.20;84.65
36222;BME280;22266;52.340;4.962;2023-02-19T00:57:46;101729.16;;;10.16;85.04
36222;BME280;22266;52.340;4.962;2023-02-19T01:00:13;101742.78;;;10.15;85.43
36222;BME280;22266;52.340;4.962;2023-02-19T01:02:40;101726.66;;;10.15;85.03
36222;BME280;22266;52.340;4.962;2023-02-19T01:05:06;101725.13;;;10.12;84.89
36222;BME280;22266;52.340;4.962;2023-02-19T01:07:35;101721.28;;;10.15;85.29
36222;BME280;22266;52.340;4.962;2023-02-19T01:10:03;101715.25;;;10.13;85.44
36222;BME280;22266;52.340;4.962;2023-02-19T01:12:31;101726.47;;;10.16;85.10
36222;BME280;22266;52.340;4.962;2023-02-19T01:14:57;101723.78;;;10.16;84.83
36222;BME280;22266;52.340;4.962;2023-02-19T01:17:24;101726.84;;;10.13;85.01
36222;BME280;22266;52.340;4.962;2023-02-19T01:19:50;101730.88;;;10.18;84.99
36222;BME280;22266;52.340;4.962;2023-02-19T01:22:17;101729.16;;;10.16;85.08
36222;BME280;22266;52.340;4.962;2023-02-19T01:24:43;101736.56;;;10.14;84.85
36222;BME280;22266;52.340;4.962;2023-02-19T01:27:10;101740.78;;;10.17;84.79
36222;BME280;22266;52.340;4.962;2023-02-19T01:29:36;101738.44;;;10.14;84.59
36222;BME280;22266;52.340;4.962;2023-02-19T01:32:02;101734.22;;;10.11;84.70
36222;BME280;22266;52.340;4.962;2023-02-19T01:34:29;101749.84;;;10.08;85.12
36222;BME280;22266;52.340;4.962;2023-02-19T01:36:58;101745.16;;;10.10;85.00
36222;BME280;22266;52.340;4.962;2023-02-19T01:39:25;101746.19;;;10.09;85.26
36222;BME280;22266;52.340;4.962;2023-02-19T01:41:51;101745.81;;;10.12;85.02
36222;BME280;22266;52.340;4.962;2023-02-19T01:46:47;101746.50;;;10.14;84.78
36222;BME280;22266;52.340;4.962;2023-02-19T01:49:29;101744.66;;;10.14;84.79
36222;BME280;22266;52.340;4.962;2023-02-19T01:52:11;101739.59;;;10.11;84.85
36222;BME280;22266;52.340;4.962;2023-02-19T01:54:41;101742.16;;;10.05;84.70
36222;BME280;22266;52.340;4.962;2023-02-19T01:57:15;101750.03;;;10.06;84.78
36222;BME280;22266;52.340;4.962;2023-02-19T01:59:48;101752.91;;;10.05;85.09
36222;BME280;22266;52.340;4.962;2023-02-19T02:02:16;101753.56;;;9.99;85.19
36222;BME280;22266;52.340;4.962;2023-02-19T02:04:42;101751.88;;;9.98;84.84
36222;BME280;22266;52.340;4.962;2023-02-19T02:07:09;101749.53;;;9.95;85.15
36222;BME280;22266;52.340;4.962;2023-02-19T02:09:55;101751.72;;;9.91;85.76
36222;BME280;22266;52.340;4.962;2023-02-19T02:12:40;101755.75;;;9.95;85.62
36222;BME280;22266;52.340;4.962;2023-02-19T02:15:07;101756.56;;;9.96;85.58
36222;BME280;22266;52.340;4.962;2023-02-19T02:17:58;101755.59;;;9.97;85.79
36222;BME280;22266;52.340;4.962;2023-02-19T02:30:46;101761.13;;;9.95;85.67
36222;BME280;22266;52.340;4.962;2023-02-19T02:35:50;101761.81;;;9.97;85.19
36222;BME280;22266;52.340;4.962;2023-02-19T02:38:21;101769.38;;;9.94;85.04
36222;BME280;22266;52.340;4.962;2023-02-19T02:40:50;101769.38;;;9.94;84.89
36222;BME280;22266;52.340;4.962;2023-02-19T02:43:18;101771.88;;;9.87;84.98
36222;BME280;22266;52.340;4.962;2023-02-19T02:45:44;101764.00;;;9.85;84.79
36222;BME280;22266;52.340;4.962;2023-02-19T02:48:40;101765.66;;;9.86;84.24
36222;BME280;22266;52.340;4.962;2023-02-19T02:51:11;101775.75;;;9.84;84.65
36222;BME280;22266;52.340;4.962;2023-02-19T02:56:39;101773.06;;;9.84;85.11
36222;BME280;22266;52.340;4.962;2023-02-19T02:59:09;101776.41;;;9.86;84.99
36222;BME280;22266;52.340;4.962;2023-02-19T03:02:07;101777.44;;;9.85;85.27
36222;BME280;22266;52.340;4.962;2023-02-19T03:04:53;101776.75;;;9.83;84.91
36222;BME280;22266;52.340;4.962;2023-02-19T03:10:23;101776.91;;;9.74;84.97
36222;BME280;22266;52.340;4.962;2023-02-19T03:12:53;101786.81;;;9.73;85.11
36222;BME280;22266;52.340;4.962;2023-02-19T03:15:45;101784.47;;;9.70;84.69
36222;BME280;22266;52.340;4.962;2023-02-19T03:18:32;101792.34;;;9.72;85.32
36222;BME280;22266;52.340;4.962;2023-02-19T03:21:22;101787.31;;;9.69;84.79
36222;BME280;22266;52.340;4.962;2023-02-19T03:23:49;101791.69;;;9.70;84.90
36222;BME280;22266;52.340;4.962;2023-02-19T03:26:37;101802.59;;;9.68;85.40
36222;BME280;22266;52.340;4.962;2023-02-19T03:29:06;101790.34;;;9.65;84.93
36222;BME280;22266;52.340;4.962;2023-02-19T03:31:55;101808.97;;;9.59;85.35
36222;BME280;22266;52.340;4.962;2023-02-19T03:34:35;101797.88;;;9.62;85.55
36222;BME280;22266;52.340;4.962;2023-02-19T03:37:09;101808.81;;;9.60;85.25
36222;BME280;22266;52.340;4.962;2023-02-19T03:39:36;101803.75;;;9.57;85.48
36222;BME280;22266;52.340;4.962;2023-02-19T03:42:22;101814.19;;;9.60;85.33
36222;BME280;22266;52.340;4.962;2023-02-19T03:45:46;101812.16;;;9.62;85.38
36222;BME280;22266;52.340;4.962;2023-02-19T03:50:46;101819.88;;;9.57;85.43
36222;BME280;22266;52.340;4.962;2023-02-19T03:56:14;101820.03;;;9.56;86.09
36222;BME280;22266;52.340;4.962;2023-02-19T03:58:56;101834.47;;;9.55;85.83
36222;BME280;22266;52.340;4.962;2023-02-19T04:01:29;101842.56;;;9.55;86.25
36222;BME280;22266;52.340;4.962;2023-02-19T04:04:11;101841.91;;;9.61;86.31
36222;BME280;22266;52.340;4.962;2023-02-19T04:06:43;101847.94;;;9.55;85.91
36222;BME280;22266;52.340;4.962;2023-02-19T04:09:13;101848.75;;;9.55;86.54
36222;BME280;22266;52.340;4.962;2023-02-19T04:11:47;101856.00;;;9.55;86.51
36222;BME280;22266;52.340;4.962;2023-02-19T04:14:19;101852.47;;;9.54;86.32
36222;BME280;22266;52.340;4.962;2023-02-19T04:16:50;101855.31;;;9.53;86.01
36222;BME280;22266;52.340;4.962;2023-02-19T04:19:20;101859.34;;;9.49;86.33
36222;BME280;22266;52.340;4.962;2023-02-19T04:21:49;101856.13;;;9.45;86.67
36222;BME280;22266;52.340;4.962;2023-02-19T04:24:24;101866.03;;;9.45;86.61
36222;BME280;22266;52.340;4.962;2023-02-19T04:26:51;101870.09;;;9.49;86.46
36222;BME280;22266;52.340;4.962;2023-02-19T04:29:19;101875.28;;;9.50;86.63
36222;BME280;22266;52.340;4.962;2023-02-19T04:31:45;101882.72;;;9.56;86.69
36222;BME280;22266;52.340;4.962;2023-02-19T04:34:12;101883.56;;;9.57;86.54
36222;BME280;22266;52.340;4.962;2023-02-19T04:36:38;101888.94;;;9.57;86.45
36222;BME280;22266;52.340;4.962;2023-02-19T04:39:05;101894.94;;;9.51;86.12
36222;BME280;22266;52.340;4.962;2023-02-19T04:41:33;101905.03;;;9.49;86.56
36222;BME280;22266;52.340;4.962;2023-02-19T04:43:59;101906.41;;;9.53;86.60
36222;BME280;22266;52.340;4.962;2023-02-19T04:46:26;101906.88;;;9.48;85.83
36222;BME280;22266;52.340;4.962;2023-02-19T04:48:52;101916.41;;;9.43;86.54
36222;BME280;22266;52.340;4.962;2023-02-19T04:51:19;101915.41;;;9.44;86.78
36222;BME280;22266;52.340;4.962;2023-02-19T04:53:45;101912.03;;;9.41;86.02
36222;BME280;22266;52.340;4.962;2023-02-19T04:56:14;101921.25;;;9.39;86.90
36222;BME280;22266;52.340;4.962;2023-02-19T04:58:41;101926.63;;;9.39;86.49
36222;BME280;22266;52.340;4.962;2023-02-19T05:01:08;101928.78;;;9.35;87.23
36222;BME280;22266;52.340;4.962;2023-02-19T05:03:36;101928.47;;;9.38;86.83
36222;BME280;22266;52.340;4.962;2023-02-19T05:06:07;101927.66;;;9.38;86.62
36222;BME280;22266;52.340;4.962;2023-02-19T05:08:35;101937.25;;;9.40;86.92
36222;BME280;22266;52.340;4.962;2023-02-19T05:11:04;101946.28;;;9.39;87.15
36222;BME280;22266;52.340;4.962;2023-02-19T05:13:31;101948.00;;;9.40;86.51
36222;BME280;22266;52.340;4.962;2023-02-19T05:16:00;101942.09;;;9.37;86.56
36222;BME280;22266;52.340;4.962;2023-02-19T05:18:27;101947.59;;;9.35;86.64
36222;BME280;22266;52.340;4.962;2023-02-19T05:20:56;101946.09;;;9.33;86.78
36222;BME280;22266;52.340;4.962;2023-02-19T05:23:23;101952.13;;;9.35;87.01
36222;BME280;22266;52.340;4.962;2023-02-19T05:25:50;101953.16;;;9.34;86.53
36222;BME280;22266;52.340;4.962;2023-02-19T05:28:16;101950.78;;;9.31;86.33
36222;BME280;22266;52.340;4.962;2023-02-19T05:30:48;101953.63;;;9.29;86.35
36222;BME280;22266;52.340;4.962;2023-02-19T05:33:15;101953.47;;;9.31;86.46
36222;BME280;22266;52.340;4.962;2023-02-19T05:35:47;101953.16;;;9.34;86.77
36222;BME280;22266;52.340;4.962;2023-02-19T05:38:15;101949.63;;;9.33;86.58
36222;BME280;22266;52.340;4.962;2023-02-19T05:40:42;101953.31;;;9.32;86.12
36222;BME280;22266;52.340;4.962;2023-02-19T05:43:09;101961.69;;;9.29;85.98
36222;BME280;22266;52.340;4.962;2023-02-19T05:45:36;101955.63;;;9.27;86.67
36222;BME280;22266;52.340;4.962;2023-02-19T05:48:03;101961.69;;;9.29;86.77
36222;BME280;22266;52.340;4.962;2023-02-19T05:50:31;101968.59;;;9.32;86.53
36222;BME280;22266;52.340;4.962;2023-02-19T05:53:10;101970.59;;;9.30;86.42
36222;BME280;22266;52.340;4.962;2023-02-19T05:55:36;101963.38;;;9.30;86.75
36222;BME280;22266;52.340;4.962;2023-02-19T05:58:03;101978.34;;;9.33;86.37
36222;BME280;22266;52.340;4.962;2023-02-19T06:00:31;101978.47;;;9.31;85.95
36222;BME280;22266;52.340;4.962;2023-02-19T06:02:58;101976.28;;;9.27;86.29
36222;BME280;22266;52.340;4.962;2023-02-19T06:05:25;101988.19;;;9.24;86.19
36222;BME280;22266;52.340;4.962;2023-02-19T06:07:51;101987.34;;;9.24;86.28
36222;BME280;22266;52.340;4.962;2023-02-19T06:10:18;101995.84;;;9.19;86.02
36222;BME280;22266;52.340;4.962;2023-02-19T06:12:44;102001.94;;;9.21;86.50
36222;BME280;22266;52.340;4.962;2023-02-19T06:15:11;101999.09;;;9.23;86.45
36222;BME280;22266;52.340;4.962;2023-02-19T06:17:38;102009.53;;;9.26;86.33
36222;BME280;22266;52.340;4.962;2023-02-19T06:20:05;102011.19;;;9.27;85.93
36222;BME280;22266;52.340;4.962;2023-02-19T06:22:31;102010.22;;;9.28;86.37
36222;BME280;22266;52.340;4.962;2023-02-19T06:24:58;102014.59;;;9.29;86.42
36222;BME280;22266;52.340;4.962;2023-02-19T06:27:24;102021.34;;;9.33;85.73
36222;BME280;22266;52.340;4.962;2023-02-19T06:29:50;102020.16;;;9.35;85.58
36222;BME280;22266;52.340;4.962;2023-02-19T06:32:17;102016.63;;;9.35;85.95
36222;BME280;22266;52.340;4.962;2023-02-19T06:34:44;102009.88;;;9.31;85.31
36222;BME280;22266;52.340;4.962;2023-02-19T06:37:10;102022.66;;;9.29;85.62
36222;BME280;22266;52.340;4.962;2023-02-19T06:39:37;102016.56;;;9.27;85.91
36222;BME280;22266;52.340;4.962;2023-02-19T06:42:03;102026.47;;;9.26;85.38
36222;BME280;22266;52.340;4.962;2023-02-19T06:44:30;102032.03;;;9.25;85.53
36222;BME280;22266;52.340;4.962;2023-02-19T06:46:56;102035.56;;;9.25;85.19
36222;BME280;22266;52.340;4.962;2023-02-19T06:49:22;102031.19;;;9.24;85.51
36222;BME280;22266;52.340;4.962;2023-02-19T06:51:49;102037.75;;;9.30;85.14
36222;BME280;22266;52.340;4.962;2023-02-19T06:54:15;102049.53;;;9.29;84.54
36222;BME280;22266;52.340;4.962;2023-02-19T06:56:42;102053.34;;;9.26;85.20
36222;BME280;22266;52.340;4.962;2023-02-19T06:59:13;102055.03;;;9.27;85.32
36222;BME280;22266;52.340;4.962;2023-02-19T07:01:43;102070.72;;;9.32;85.37
36222;BME280;22266;52.340;4.962;2023-02-19T07:04:10;102063.31;;;9.34;85.52
36222;BME280;22266;52.340;4.962;2023-02-19T07:06:36;102072.94;;;9.36;85.28
36222;BME280;22266;52.340;4.962;2023-02-19T07:09:05;102071.06;;;9.37;85.16
36222;BME280;22266;52.340;4.962;2023-02-19T07:11:33;102084.97;;;9.32;85.13
36222;BME280;22266;52.340;4.962;2023-02-19T07:14:02;102087.50;;;9.34;84.97
36222;BME280;22266;52.340;4.962;2023-02-19T07:16:29;102087.66;;;9.32;84.66
36222;BME280;22266;52.340;4.962;2023-02-19T07:18:57;102094.91;;;9.32;84.92
36222;BME280;22266;52.340;4.962;2023-02-19T07:21:23;102096.72;;;9.31;85.25
36222;BME280;22266;52.340;4.962;2023-02-19T07:23:51;102105.78;;;9.30;84.96
36222;BME280;22266;52.340;4.962;2023-02-19T07:26:18;102110.84;;;9.33;85.04
36222;BME280;22266;52.340;4.962;2023-02-19T07:28:49;102113.00;;;9.30;85.04
36222;BME280;22266;52.340;4.962;2023-02-19T07:31:18;102111.16;;;9.30;85.51
36222;BME280;22266;52.340;4.962;2023-02-19T07:33:45;102125.59;;;9.29;85.62
36222;BME280;22266;52.340;4.962;2023-02-19T07:36:13;102120.06;;;9.31;85.35
36222;BME280;22266;52.340;4.962;2023-02-19T07:38:40;102122.59;;;9.32;85.29
36222;BME280;22266;52.340;4.962;2023-02-19T07:41:07;102129.66;;;9.33;85.76
36222;BME280;22266;52.340;4.962;2023-02-19T07:43:35;102132.34;;;9.33;85.39
36222;BME280;22266;52.340;4.962;2023-02-19T07:46:11;102132.03;;;9.36;85.74
36222;BME280;22266;52.340;4.962;2023-02-19T07:48:39;102139.94;;;9.38;85.90
36222;BME280;22266;52.340;4.962;2023-02-19T07:51:09;102139.78;;;9.39;85.92
36222;BME280;22266;52.340;4.962;2023-02-19T07:53:36;102138.94;;;9.39;85.62
36222;BME280;22266;52.340;4.962;2023-02-19T07:56:05;102148.31;;;9.35;85.58
36222;BME280;22266;52.340;4.962;2023-02-19T07:58:33;102147.38;;;9.26;84.88
36222;BME280;22266;52.340;4.962;2023-02-19T08:01:12;102149.22;;;9.26;85.61
36222;BME280;22266;52.340;4.962;2023-02-19T08:03:40;102152.63;;;9.28;86.34
36222;BME280;22266;52.340;4.962;2023-02-19T08:06:07;102156.81;;;9.30;85.94
36222;BME280;22266;52.340;4.962;2023-02-19T08:08:33;102164.75;;;9.32;86.28
36222;BME280;22266;52.340;4.962;2023-02-19T08:11:01;102156.69;;;9.32;86.32
36222;BME280;22266;52.340;4.962;2023-02-19T08:13:50;102165.28;;;9.35;85.98
36222;BME280;22266;52.340;4.962;2023-02-19T08:16:18;102168.66;;;9.37;86.08
36222;BME280;22266;52.340;4.962;2023-02-19T08:18:58;102170.03;;;9.41;85.96
36222;BME280;22266;52.340;4.962;2023-02-19T08:21:25;102159.28;;;9.41;85.81
36222;BME280;22266;52.340;4.962;2023-02-19T08:23:52;102183.19;;;9.45;85.86
36222;BME280;22266;52.340;4.962;2023-02-19T08:26:18;102183.47;;;9.41;85.21
36222;BME280;22266;52.340;4.962;2023-02-19T08:28:44;102200.06;;;9.37;85.45
36222;BME280;22266;52.340;4.962;2023-02-19T08:31:11;102200.06;;;9.37;85.40
36222;BME280;22266;52.340;4.962;2023-02-19T08:33:39;102204.28;;;9.39;86.02
36222;BME280;22266;52.340;4.962;2023-02-19T08:36:07;102213.88;;;9.42;85.94
36222;BME280;22266;52.340;4.962;2023-02-19T08:38:35;102199.97;;;9.47;86.01
36222;BME280;22266;52.340;4.962;2023-02-19T08:41:06;102200.34;;;9.52;85.84
36222;BME280;22266;52.340;4.962;2023-02-19T08:43:34;102196.53;;;9.54;85.34
36222;BME280;22266;52.340;4.962;2023-02-19T08:46:01;102189.16;;;9.56;85.51
36222;BME280;22266;52.340;4.962;2023-02-19T08:48:27;102204.44;;;9.56;84.90
36222;BME280;22266;52.340;4.962;2023-02-19T08:50:55;102196.00;;;9.51;84.96
36222;BME280;22266;52.340;4.962;2023-02-19T08:53:23;102208.28;;;9.53;85.59
36222;BME280;22266;52.340;4.962;2023-02-19T08:55:50;102212.06;;;9.60;85.43
36222;BME280;22266;52.340;4.962;2023-02-19T08:58:17;102202.16;;;9.61;85.67
36222;BME280;22266;52.340;4.962;2023-02-19T09:00:44;102205.81;;;9.60;84.67
36222;BME280;22266;52.340;4.962;2023-02-19T09:03:10;102216.44;;;9.61;85.44
36222;BME280;22266;52.340;4.962;2023-02-19T09:05:37;102223.31;;;9.64;85.39
36222;BME280;22266;52.340;4.962;2023-02-19T09:08:04;102235.38;;;9.60;84.54
36222;BME280;22266;52.340;4.962;2023-02-19T09:10:30;102227.66;;;9.57;84.99
36222;BME280;22266;52.340;4.962;2023-02-19T09:12:57;102241.09;;;9.57;85.23
36222;BME280;22266;52.340;4.962;2023-02-19T09:15:23;102236.00;;;9.54;85.48
36222;BME280;22266;52.340;4.962;2023-02-19T09:17:52;102239.84;;;9.51;84.80
36222;BME280;22266;52.340;4.962;2023-02-19T09:20:19;102253.75;;;9.47;84.77
36222;BME280;22266;52.340;4.962;2023-02-19T09:22:45;102264.66;;;9.45;85.50
36222;BME280;22266;52.340;4.962;2023-02-19T09:25:12;102272.88;;;9.61;87.47
36222;BME280;22266;52.340;4.962;2023-02-19T09:27:38;102290.41;;;9.65;85.88
36222;BME280;22266;52.340;4.962;2023-02-19T09:30:05;102289.06;;;9.52;84.13
36222;BME280;22266;52.340;4.962;2023-02-19T09:32:32;102295.13;;;9.36;84.37
36222;BME280;22266;52.340;4.962;2023-02-19T09:34:58;102303.13;;;9.18;83.89
36222;BME280;22266;52.340;4.962;2023-02-19T09:37:26;102320.72;;;9.12;84.43
36222;BME280;22266;52.340;4.962;2023-02-19T09:39:54;102312.53;;;9.04;84.33
36222;BME280;22266;52.340;4.962;2023-02-19T09:42:26;102312.56;;;8.95;83.87
36222;BME280;22266;52.340;4.962;2023-02-19T09:44:57;102316.41;;;8.92;84.57
36222;BME280;22266;52.340;4.962;2023-02-19T09:47:27;102327.38;;;8.99;84.95
36222;BME280;22266;52.340;4.962;2023-02-19T09:50:11;102338.56;;;8.94;84.25
36222;BME280;22266;52.340;4.962;2023-02-19T09:52:49;102344.78;;;8.95;84.63
36222;BME280;22266;52.340;4.962;2023-02-19T09:55:28;102342.81;;;8.97;85.06
36222;BME280;22266;52.340;4.962;2023-02-19T09:57:58;102354.13;;;9.00;84.60
36222;BME280;22266;52.340;4.962;2023-02-19T10:00:28;102365.31;;;8.96;84.48
36222;BME280;22266;52.340;4.962;2023-02-19T10:03:29;102358.78;;;8.98;84.37
36222;BME280;22266;52.340;4.962;2023-02-19T10:06:04;102358.66;;;9.00;83.97
36222;BME280;22266;52.340;4.962;2023-02-19T10:08:33;102370.53;;;8.97;83.77
36222;BME280;22266;52.340;4.962;2023-02-19T10:11:01;102377.84;;;8.95;84.68
36222;BME280;22266;52.340;4.962;2023-02-19T10:13:43;102393.00;;;8.96;84.11
36222;BME280;22266;52.340;4.962;2023-02-19T10:16:13;102404.16;;;9.01;84.18
36222;BME280;22266;52.340;4.962;2023-02-19T10:18:43;102399.63;;;9.02;84.09
36222;BME280;22266;52.340;4.962;2023-02-19T10:21:25;102406.00;;;9.01;84.03
36222;BME280;22266;52.340;4.962;2023-02-19T10:23:55;102413.50;;;8.97;84.11
36222;BME280;22266;52.340;4.962;2023-02-19T10:26:22;102415.06;;;9.00;84.00
36222;BME280;22266;52.340;4.962;2023-02-19T10:28:49;102414.75;;;9.03;83.62
36222;BME280;22266;52.340;4.962;2023-02-19T10:31:19;102416.19;;;8.97;83.03
36222;BME280;22266;52.340;4.962;2023-02-19T10:33:55;102425.25;;;8.96;83.85
36222;BME280;22266;52.340;4.962;2023-02-19T10:36:30;102420.59;;;8.88;82.93
36222;BME280;22266;52.340;4.962;2023-02-19T10:39:00;102423.84;;;8.73;83.33
36222;BME280;22266;52.340;4.962;2023-02-19T10:41:29;102423.88;;;8.63;83.98
36222;BME280;22266;52.340;4.962;2023-02-19T10:44:05;102422.88;;;8.54;83.01
36222;BME280;22266;52.340;4.962;2023-02-19T10:46:42;102413.41;;;8.40;83.67
36222;BME280;22266;52.340;4.962;2023-02-19T10:49:31;102418.88;;;8.29;83.61
36222;BME280;22266;52.340;4.962;2023-02-19T10:55:19;102408.13;;;8.10;83.72
36222;BME280;22266;52.340;4.962;2023-02-19T10:57:49;102415.91;;;8.03;84.86
36222;BME280;22266;52.340;4.962;2023-02-19T11:00:29;102417.59;;;8.04;84.28
36222;BME280;22266;52.340;4.962;2023-02-19T11:03:13;102426.34;;;7.97;84.77
36222;BME280;22266;52.340;4.962;2023-02-19T11:05:49;102431.84;;;8.05;85.41
36222;BME280;22266;52.340;4.962;2023-02-19T11:08:22;102447.81;;;8.06;84.13
36222;BME280;22266;52.340;4.962;2023-02-19T11:10:49;102443.56;;;7.94;83.00
36222;BME280;22266;52.340;4.962;2023-02-19T11:13:25;102445.09;;;7.87;84.28
36222;BME280;22266;52.340;4.962;2023-02-19T11:15:53;102448.94;;;7.94;83.89
36222;BME280;22266;52.340;4.962;2023-02-19T11:18:29;102448.78;;;7.96;85.47
36222;BME280;22266;52.340;4.962;2023-02-19T11:20:59;102445.16;;;8.06;85.27
36222;BME280;22266;52.340;4.962;2023-02-19T11:23:42;102454.03;;;8.16;85.06
36222;BME280;22266;52.340;4.962;2023-02-19T11:26:19;102454.91;;;8.27;84.35
36222;BME280;22266;52.340;4.962;2023-02-19T11:28:54;102458.97;;;8.21;83.25
36222;BME280;22266;52.340;4.962;2023-02-19T11:31:25;102468.72;;;8.12;83.20
36222;BME280;22266;52.340;4.962;2023-02-19T11:34:01;102456.84;;;8.05;83.23
36222;BME280;22266;52.340;4.962;2023-02-19T11:36:33;102459.34;;;7.87;81.46
36222;BME280;22266;52.340;4.962;2023-02-19T11:39:17;102463.19;;;7.95;82.35
36222;BME280;22266;52.340;4.962;2023-02-19T11:50:26;102457.75;;;7.75;80.46
36222;BME280;22266;52.340;4.962;2023-02-19T11:53:18;102457.31;;;7.70;82.35
36222;BME280;22266;52.340;4.962;2023-02-19T11:56:05;102462.13;;;7.76;82.20
36222;BME280;22266;52.340;4.962;2023-02-19T12:01:11;102461.78;;;8.00;82.82
36222;BME280;22266;52.340;4.962;2023-02-19T12:04:13;102458.41;;;7.98;81.07
36222;BME280;22266;52.340;4.962;2023-02-19T12:10:09;102474.03;;;7.93;82.21
36222;BME280;22266;52.340;4.962;2023-02-19T12:13:18;102480.13;;;8.05;82.32
36222;BME280;22266;52.340;4.962;2023-02-19T12:16:15;102467.72;;;8.13;81.95
36222;BME280;22266;52.340;4.962;2023-02-19T12:27:07;102467.13;;;8.10;80.24
36222;BME280;22266;52.340;4.962;2023-02-19T12:30:02;102477.28;;;7.97;80.36
36222;BME280;22266;52.340;4.962;2023-02-19T12:35:22;102484.34;;;7.98;80.25
36222;BME280;22266;52.340;4.962;2023-02-19T12:38:04;102480.97;;;7.96;80.24
36222;BME280;22266;52.340;4.962;2023-02-19T12:43:18;102493.38;;;7.97;80.67
36222;BME280;22266;52.340;4.962;2023-02-19T12:45:58;102487.31;;;8.04;80.78
36222;BME280;22266;52.340;4.962;2023-02-19T12:53:50;102512.53;;;8.32;81.12
36222;BME280;22266;52.340;4.962;2023-02-19T12:56:32;102520.41;;;8.34;80.49
36222;BME280;22266;52.340;4.962;2023-02-19T12:59:15;102531.66;;;8.39;80.75
36222;BME280;22266;52.340;4.962;2023-02-19T13:01:57;102525.56;;;8.37;79.91
36222;BME280;22266;52.340;4.962;2023-02-19T13:05:01;102533.16;;;8.32;80.60
36222;BME280;22266;52.340;4.962;2023-02-19T13:07:52;102540.78;;;8.36;80.76
36222;BME280;22266;52.340;4.962;2023-02-19T13:10:26;102545.56;;;8.33;80.51
36222;BME280;22266;52.340;4.962;2023-02-19T13:12:57;102540.19;;;8.23;80.68
36222;BME280;22266;52.340;4.962;2023-02-19T13:15:40;102529.88;;;8.18;80.76
36222;BME280;22266;52.340;4.962;2023-02-19T13:18:18;102535.66;;;8.24;81.76
36222;BME280;22266;52.340;4.962;2023-02-19T13:20:46;102542.13;;;8.21;81.48
36222;BME280;22266;52.340;4.962;2023-02-19T13:23:29;102542.97;;;8.22;81.38
36222;BME280;22266;52.340;4.962;2023-02-19T13:31:56;102563.75;;;8.29;84.82
36222;BME280;22266;52.340;4.962;2023-02-19T13:37:24;102566.13;;;8.53;82.07
36222;BME280;22266;52.340;4.962;2023-02-19T13:39:53;102569.53;;;8.65;85.65
36222;BME280;22266;52.340;4.962;2023-02-19T13:42:30;102566.53;;;8.49;81.42
36222;BME280;22266;52.340;4.962;2023-02-19T13:45:00;102581.22;;;8.45;82.46
36222;BME280;22266;52.340;4.962;2023-02-19T13:50:27;102575.81;;;8.35;82.05
36222;BME280;22266;52.340;4.962;2023-02-19T13:52:55;102583.59;;;8.38;82.14
36222;BME280;22266;52.340;4.962;2023-02-19T13:55:45;102584.44;;;8.38;81.59
36222;BME280;22266;52.340;4.962;2023-02-19T13:58:34;102572.13;;;8.36;82.23
36222;BME280;22266;52.340;4.962;2023-02-19T14:01:06;102584.59;;;8.37;82.14
36222;BME280;22266;52.340;4.962;2023-02-19T14:06:03;102574.84;;;8.46;82.33
36222;BME280;22266;52.340;4.962;2023-02-19T14:08:47;102571.75;;;8.50;81.73
36222;BME280;22266;52.340;4.962;2023-02-19T14:11:15;102572.31;;;8.54;81.72
36222;BME280;22266;52.340;4.962;2023-02-19T14:19:12;102551.16;;;8.60;81.80
36222;BME280;22266;52.340;4.962;2023-02-19T14:21:39;102542.38;;;8.58;81.44
36222;BME280;22266;52.340;4.962;2023-02-19T14:24:13;102541.25;;;8.61;81.59
36222;BME280;22266;52.340;4.962;2023-02-19T14:26:41;102542.41;;;8.68;81.68
36222;BME280;22266;52.340;4.962;2023-02-19T14:29:10;102535.06;;;8.70;81.20
36222;BME280;22266;52.340;4.962;2023-02-19T14:31:38;102535.78;;;8.72;81.23
36222;BME280;22266;52.340;4.962;2023-02-19T14:34:18;102529.41;;;8.73;80.75
36222;BME280;22266;52.340;4.962;2023-02-19T14:36:52;102517.97;;;8.71;80.50
36222;BME280;22266;52.340;4.962;2023-02-19T14:39:28;102516.72;;;8.75;80.80
36222;BME280;22266;52.340;4.962;2023-02-19T14:41:59;102514.97;;;8.74;80.65
36222;BME280;22266;52.340;4.962;2023-02-19T14:44:34;102516.41;;;8.69;80.76